createdAt,value
2023-05-21T00:00:31.338Z,6.60
2023-05-21T00:02:34.461Z,6.07
2023-05-21T00:04:36.131Z,6.88
2023-05-21T00:06:38.075Z,6.50
2023-05-21T00:08:40.048Z,6.68
2023-05-21T00:10:41.650Z,7.47
2023-05-21T00:12:43.287Z,6.95
2023-05-21T00:14:44.861Z,7.15
2023-05-21T00:16:47.167Z,6.80
2023-05-21T00:18:54.358Z,6.47
2023-05-21T00:20:56.006Z,6.80
2023-05-21T00:22:58.271Z,6.65
2023-05-21T00:24:59.998Z,6.55
2023-05-21T00:27:01.559Z,5.93
2023-05-21T00:29:03.486Z,6.50
2023-05-21T00:31:05.162Z,6.68
2023-05-21T00:33:07.570Z,6.50
2023-05-21T00:35:09.423Z,6.55
2023-05-21T00:37:11.074Z,6.45
2023-05-21T00:39:13.667Z,6.68
2023-05-21T00:41:15.650Z,6.93
2023-05-21T00:43:17.259Z,6.45
2023-05-21T00:45:19.093Z,6.82
2023-05-21T00:47:23.686Z,6.80
2023-05-21T00:49:25.961Z,6.80
2023-05-21T00:51:30.409Z,6.80
2023-05-21T00:53:35.075Z,6.38
2023-05-21T00:55:39.924Z,6.60
2023-05-21T00:57:42.579Z,6.05
2023-05-21T00:59:44.556Z,6.20
2023-05-21T01:01:52.412Z,6.30
2023-05-21T01:03:57.728Z,5.95
2023-05-21T01:08:33.517Z,6.03
2023-05-21T01:10:35.143Z,6.32
2023-05-21T01:12:39.372Z,5.75
2023-05-21T01:14:41.823Z,5.80
2023-05-21T01:16:46.935Z,6.20
2023-05-21T01:18:48.920Z,5.85
2023-05-21T01:20:50.930Z,5.68
2023-05-21T01:22:56.937Z,6.22
2023-05-21T01:24:58.596Z,5.88
2023-05-21T01:27:02.553Z,6.55
2023-05-21T01:29:06.551Z,6.25
2023-05-21T01:31:23.513Z,5.88
2023-05-21T01:33:41.843Z,6.25
2023-05-21T01:35:50.453Z,5.90
2023-05-21T01:37:59.810Z,5.47
2023-05-21T01:40:13.127Z,5.70
2023-05-21T01:42:16.861Z,5.97
2023-05-21T01:44:19.356Z,6.43
2023-05-21T01:46:25.204Z,5.03
2023-05-21T01:48:29.289Z,5.72
2023-05-21T01:50:32.325Z,6.05
2023-05-21T01:52:33.982Z,6.10
2023-05-21T01:54:35.569Z,5.75
2023-05-21T01:56:37.261Z,6.03
2023-05-21T01:58:38.861Z,6.00
2023-05-21T02:00:40.415Z,5.70
2023-05-21T02:02:42.131Z,5.57
2023-05-21T02:04:44.292Z,6.18
2023-05-21T02:06:45.863Z,5.60
2023-05-21T02:08:48.414Z,5.65
2023-05-21T02:10:50.513Z,5.97
2023-05-21T02:12:52.122Z,5.55
2023-05-21T02:14:53.772Z,6.15
2023-05-21T02:16:55.360Z,6.13
2023-05-21T02:18:58.819Z,5.68
2023-05-21T02:21:03.546Z,5.55
2023-05-21T02:23:05.142Z,5.40
2023-05-21T02:25:08.907Z,5.40
2023-05-21T02:27:10.660Z,5.82
2023-05-21T02:29:12.255Z,5.97
2023-05-21T02:31:13.892Z,5.60
2023-05-21T02:33:16.653Z,5.97
2023-05-21T02:35:18.690Z,5.70
2023-05-21T02:37:20.545Z,5.93
2023-05-21T02:39:22.281Z,5.38
2023-05-21T02:41:24.041Z,6.18
2023-05-21T02:43:25.713Z,6.22
2023-05-21T02:45:28.642Z,5.78
2023-05-21T02:47:30.457Z,6.53
2023-05-21T02:49:32.058Z,5.90
2023-05-21T02:51:33.656Z,5.82
2023-05-21T02:53:35.541Z,5.38
2023-05-21T02:55:37.362Z,5.75
2023-05-21T02:57:39.089Z,5.63
2023-05-21T02:59:40.768Z,5.60
2023-05-21T03:01:42.462Z,5.65
2023-05-21T03:03:44.185Z,5.32
2023-05-21T03:05:45.899Z,5.85
2023-05-21T03:07:47.498Z,5.38
2023-05-21T03:09:49.153Z,5.30
2023-05-21T03:11:51.010Z,5.97
2023-05-21T03:13:52.556Z,5.85
2023-05-21T03:15:57.468Z,5.82
2023-05-21T03:17:59.614Z,6.13
2023-05-21T03:20:01.508Z,6.28
2023-05-21T03:22:04.591Z,5.30
2023-05-21T03:24:06.897Z,5.18
2023-05-21T03:26:08.927Z,5.97
2023-05-21T03:28:10.524Z,5.70
2023-05-21T03:30:12.642Z,5.63
2023-05-21T03:32:14.492Z,5.57
2023-05-21T03:34:16.550Z,6.35
2023-05-21T03:36:18.500Z,5.82
2023-05-21T03:38:20.085Z,6.00
2023-05-21T03:40:21.940Z,5.95
2023-05-21T03:42:23.543Z,5.50
2023-05-21T03:44:25.157Z,6.13
2023-05-21T03:46:28.082Z,5.93
2023-05-21T03:48:29.678Z,5.90
2023-05-21T03:50:31.409Z,5.72
2023-05-21T03:52:33.033Z,5.95
2023-05-21T03:54:34.611Z,5.78
2023-05-21T03:56:36.162Z,6.65
2023-05-21T03:58:37.626Z,6.78
2023-05-21T04:00:39.390Z,6.25
2023-05-21T04:02:41.104Z,6.75
2023-05-21T04:04:44.494Z,6.18
2023-05-21T04:06:46.114Z,6.72
2023-05-21T04:08:48.143Z,6.15
2023-05-21T04:10:49.738Z,6.68
2023-05-21T04:12:52.551Z,6.00
2023-05-21T04:14:54.357Z,6.15
2023-05-21T04:16:56.833Z,6.53
2023-05-21T04:18:58.456Z,6.30
2023-05-21T04:21:00.888Z,6.68
2023-05-21T04:23:03.515Z,6.32
2023-05-21T04:25:05.437Z,6.15
2023-05-21T04:27:07.054Z,6.65
2023-05-21T04:29:09.910Z,5.90
2023-05-21T04:31:13.777Z,6.25
2023-05-21T04:33:18.232Z,5.97
2023-05-21T04:35:20.187Z,6.85
2023-05-21T04:37:24.600Z,5.78
2023-05-21T04:39:26.186Z,6.07
2023-05-21T04:41:28.575Z,5.80
2023-05-21T04:43:30.475Z,6.93
2023-05-21T04:45:32.059Z,6.63
2023-05-21T04:47:35.468Z,6.47
2023-05-21T04:49:37.331Z,6.10
2023-05-21T04:51:38.980Z,6.70
2023-05-21T04:53:40.860Z,6.63
2023-05-21T04:55:42.573Z,6.65
2023-05-21T04:57:44.164Z,6.82
2023-05-21T04:59:47.101Z,6.57
2023-05-21T05:01:48.746Z,6.68
2023-05-21T05:03:50.602Z,6.20
2023-05-21T05:05:52.796Z,6.80
2023-05-21T05:07:54.405Z,6.20
2023-05-21T05:09:56.014Z,6.53
2023-05-21T05:11:57.673Z,7.30
2023-05-21T05:13:59.240Z,6.28
2023-05-21T05:16:01.595Z,6.75
2023-05-21T05:18:03.351Z,7.05
2023-05-21T05:20:06.689Z,6.47
2023-05-21T05:22:08.230Z,6.40
2023-05-21T05:24:09.862Z,6.40
2023-05-21T05:26:11.443Z,6.95
2023-05-21T05:28:13.103Z,7.07
2023-05-21T05:30:14.747Z,6.80
2023-05-21T05:32:16.367Z,6.85
2023-05-21T05:34:17.985Z,7.13
2023-05-21T05:36:19.580Z,7.65
2023-05-21T05:38:21.161Z,7.38
2023-05-21T05:40:22.785Z,7.20
2023-05-21T05:42:24.403Z,7.22
2023-05-21T05:44:26.005Z,7.05
2023-05-21T05:46:29.237Z,7.32
2023-05-21T05:48:31.252Z,7.22
2023-05-21T05:50:32.800Z,7.28
2023-05-21T05:52:34.373Z,7.15
2023-05-21T05:54:35.992Z,7.30
2023-05-21T05:56:37.612Z,6.68
2023-05-21T05:58:39.170Z,7.07
2023-05-21T06:00:40.931Z,6.40
2023-05-21T06:02:42.633Z,6.38
2023-05-21T06:04:44.228Z,7.32
2023-05-21T06:06:46.146Z,7.07
2023-05-21T06:08:47.780Z,7.68
2023-05-21T06:10:49.496Z,6.75
2023-05-21T06:12:51.046Z,6.90
2023-05-21T06:14:52.632Z,7.05
2023-05-21T06:16:54.211Z,6.55
2023-05-21T06:18:55.870Z,7.43
2023-05-21T06:20:57.787Z,7.82
2023-05-21T06:23:01.081Z,7.28
2023-05-21T06:25:02.943Z,7.80
2023-05-21T06:27:05.084Z,7.38
2023-05-21T06:29:06.897Z,7.20
2023-05-21T06:31:08.515Z,7.10
2023-05-21T06:33:10.130Z,7.13
2023-05-21T06:35:11.869Z,7.13
2023-05-21T06:37:13.571Z,7.00
2023-05-21T06:39:15.200Z,7.40
2023-05-21T06:41:16.762Z,7.50
2023-05-21T06:43:18.387Z,7.65
2023-05-21T06:45:20.018Z,7.65
2023-05-21T06:47:21.642Z,8.00
2023-05-21T06:49:23.235Z,7.00
2023-05-21T06:51:24.801Z,7.90
2023-05-21T06:53:26.405Z,7.55
2023-05-21T06:55:27.941Z,7.95
2023-05-21T06:57:29.498Z,8.38
2023-05-21T06:59:31.611Z,8.27
2023-05-21T07:01:34.395Z,8.13
2023-05-21T07:03:36.690Z,8.10
2023-05-21T07:05:38.601Z,8.02
2023-05-21T07:07:40.702Z,8.80
2023-05-21T07:09:42.281Z,7.85
2023-05-21T07:11:44.432Z,7.38
2023-05-21T07:13:46.067Z,7.13
2023-05-21T07:15:47.639Z,7.55
2023-05-21T07:17:49.218Z,8.02
2023-05-21T07:19:50.854Z,8.48
2023-05-21T07:21:52.517Z,8.40
2023-05-21T07:23:54.089Z,8.45
2023-05-21T07:25:55.687Z,7.70
2023-05-21T07:27:57.250Z,7.68
2023-05-21T07:29:58.823Z,8.55
2023-05-21T07:32:00.403Z,9.02
2023-05-21T07:34:01.970Z,8.90
2023-05-21T07:36:04.323Z,8.20
2023-05-21T07:38:06.238Z,9.85
2023-05-21T07:40:08.426Z,8.70
2023-05-21T07:42:10.079Z,9.13
2023-05-21T07:44:11.649Z,8.57
2023-05-21T07:46:13.267Z,8.73
2023-05-21T07:48:14.993Z,8.45
2023-05-21T07:50:16.629Z,8.40
2023-05-21T07:52:18.267Z,8.70
2023-05-21T07:54:19.906Z,8.93
2023-05-21T07:56:21.608Z,8.13
2023-05-21T07:58:23.575Z,9.00
2023-05-21T08:00:25.276Z,9.30
2023-05-21T08:02:26.935Z,9.05
2023-05-21T08:04:28.709Z,8.90
2023-05-21T08:06:31.261Z,8.63
2023-05-21T08:08:32.896Z,9.32
2023-05-21T08:10:34.458Z,9.23
2023-05-21T08:12:36.134Z,9.07
2023-05-21T08:14:37.676Z,9.20
2023-05-21T08:16:39.360Z,8.45
2023-05-21T08:18:41.354Z,8.82
2023-05-21T08:20:43.123Z,8.90
2023-05-21T08:22:44.675Z,9.10
2023-05-21T08:24:46.539Z,8.77
2023-05-21T08:26:49.665Z,9.40
2023-05-21T08:28:51.319Z,8.98
2023-05-21T08:30:52.938Z,9.07
2023-05-21T08:32:55.336Z,8.95
2023-05-21T08:34:58.181Z,9.77
2023-05-21T08:36:59.735Z,9.80
2023-05-21T08:39:01.587Z,9.48
2023-05-21T08:41:06.894Z,10.13
2023-05-21T08:43:13.830Z,10.13
2023-05-21T08:45:21.069Z,9.25
2023-05-21T08:47:26.141Z,9.65
2023-05-21T08:49:34.547Z,10.15
2023-05-21T08:51:36.145Z,10.15
2023-05-21T08:53:37.990Z,9.45
2023-05-21T08:55:43.459Z,9.05
2023-05-21T08:57:45.333Z,9.85
2023-05-21T08:59:47.048Z,9.90
2023-05-21T09:01:50.168Z,10.25
2023-05-21T09:03:54.552Z,10.25
2023-05-21T09:06:01.284Z,9.73
2023-05-21T09:08:19.603Z,10.23
2023-05-21T09:10:26.682Z,9.77
2023-05-21T09:12:28.772Z,10.50
2023-05-21T09:14:31.288Z,10.48
2023-05-21T09:16:32.912Z,9.82
2023-05-21T09:18:34.701Z,10.45
2023-05-21T09:20:36.333Z,9.52
2023-05-21T09:22:42.875Z,9.90
2023-05-21T09:26:46.323Z,10.60
2023-05-21T09:28:47.986Z,10.77
2023-05-21T09:30:54.025Z,10.30
2023-05-21T09:33:00.196Z,11.10
2023-05-21T09:35:13.090Z,10.32
2023-05-21T09:37:26.508Z,10.23
2023-05-21T09:39:32.021Z,10.65
2023-05-21T09:41:36.130Z,10.77
2023-05-21T09:43:37.863Z,10.20
2023-05-21T09:45:50.799Z,10.63
2023-05-21T09:47:53.933Z,10.35
2023-05-21T09:49:58.694Z,10.15
2023-05-21T09:52:00.554Z,10.32
2023-05-21T09:54:03.324Z,11.45
2023-05-21T09:56:05.322Z,10.82
2023-05-21T09:58:07.202Z,11.55
2023-05-21T10:00:10.809Z,10.10
2023-05-21T10:02:21.044Z,10.88
2023-05-21T10:04:24.908Z,11.60
2023-05-21T10:06:32.320Z,11.45
2023-05-21T10:08:36.754Z,11.25
2023-05-21T10:10:40.648Z,10.23
2023-05-21T10:12:46.472Z,10.32
2023-05-21T10:14:52.391Z,10.38
2023-05-21T10:16:54.749Z,10.98
2023-05-21T10:18:58.110Z,10.95
2023-05-21T10:21:00.982Z,11.45
2023-05-21T10:23:03.440Z,12.38
2023-05-21T10:25:07.827Z,10.57
2023-05-21T10:27:10.343Z,9.70
2023-05-21T10:29:14.593Z,11.27
2023-05-21T10:31:16.708Z,10.90
2023-05-21T10:33:18.403Z,11.77
2023-05-21T10:35:20.066Z,11.15
2023-05-21T10:37:31.965Z,11.55
2023-05-21T10:39:34.490Z,11.52
2023-05-21T10:41:46.698Z,11.95
2023-05-21T10:43:57.855Z,11.07
2023-05-21T10:46:24.578Z,11.82
2023-05-21T10:48:36.726Z,11.57
2023-05-21T10:50:46.865Z,12.65
2023-05-21T10:53:10.651Z,11.20
2023-05-21T10:55:15.487Z,11.93
2023-05-21T10:57:29.276Z,12.07
2023-05-21T10:59:42.653Z,11.18
2023-05-21T11:01:45.374Z,11.52
2023-05-21T11:03:48.668Z,12.13
2023-05-21T11:05:55.933Z,12.00
2023-05-21T11:07:57.798Z,12.25
2023-05-21T11:10:37.415Z,12.27
2023-05-21T11:13:09.351Z,11.57
2023-05-21T11:17:42.003Z,11.32
2023-05-21T11:19:47.500Z,11.38
2023-05-21T11:21:52.184Z,11.93
2023-05-21T11:23:58.529Z,12.45
2023-05-21T11:26:03.317Z,12.60
2023-05-21T11:28:09.637Z,11.75
2023-05-21T11:30:19.607Z,12.82
2023-05-21T11:32:21.244Z,11.32
2023-05-21T11:34:28.687Z,11.35
2023-05-21T11:36:30.435Z,11.80
2023-05-21T11:38:33.005Z,11.38
2023-05-21T11:40:35.645Z,11.90
2023-05-21T11:42:42.169Z,11.63
2023-05-21T11:44:48.325Z,11.70
2023-05-21T11:46:51.978Z,11.93
2023-05-21T11:48:55.078Z,12.32
2023-05-21T11:50:57.582Z,11.73
2023-05-21T11:52:59.956Z,11.73
2023-05-21T11:55:01.652Z,11.98
2023-05-21T11:57:07.801Z,12.05
2023-05-21T11:59:19.066Z,12.07
2023-05-21T12:01:29.458Z,11.57
2023-05-21T12:03:35.113Z,11.95
2023-05-21T12:05:49.709Z,12.40
2023-05-21T12:07:51.668Z,10.98
2023-05-21T12:09:53.344Z,11.27
2023-05-21T12:11:55.050Z,11.52
2023-05-21T12:13:56.980Z,11.45
2023-05-21T12:15:58.660Z,11.32
2023-05-21T12:18:01.339Z,11.95
2023-05-21T12:20:07.211Z,12.38
2023-05-21T12:22:09.605Z,12.02
2023-05-21T12:24:11.152Z,12.35
2023-05-21T12:26:13.752Z,11.30
2023-05-21T12:28:16.029Z,11.75
2023-05-21T12:30:21.308Z,12.02
2023-05-21T12:32:22.956Z,11.50
2023-05-21T12:34:46.551Z,11.77
2023-05-21T12:36:50.190Z,11.27
2023-05-21T12:38:52.091Z,10.90
2023-05-21T12:40:53.801Z,10.93
2023-05-21T12:42:56.164Z,10.95
2023-05-21T12:44:58.099Z,11.13
2023-05-21T12:46:59.827Z,12.43
2023-05-21T12:49:01.400Z,11.95
2023-05-21T12:51:03.025Z,11.65
2023-05-21T12:53:04.576Z,12.10
2023-05-21T12:55:08.247Z,12.38
2023-05-21T12:57:16.149Z,11.30
2023-05-21T12:59:17.723Z,11.95
2023-05-21T13:01:21.886Z,11.77
2023-05-21T13:03:23.634Z,11.02
2023-05-21T13:05:25.232Z,11.70
2023-05-21T13:07:29.115Z,11.45
2023-05-21T13:09:30.688Z,11.48
2023-05-21T13:11:32.275Z,11.70
2023-05-21T13:13:33.830Z,10.45
2023-05-21T13:15:35.470Z,11.80
2023-05-21T13:17:37.769Z,11.73
2023-05-21T13:19:39.392Z,11.50
2023-05-21T13:21:40.965Z,10.63
2023-05-21T13:23:42.546Z,10.43
2023-05-21T13:25:44.320Z,10.63
2023-05-21T13:27:47.413Z,11.20
2023-05-21T13:29:49.003Z,10.35
2023-05-21T13:31:50.568Z,10.25
2023-05-21T13:33:52.230Z,10.52
2023-05-21T13:35:53.890Z,11.68
2023-05-21T13:37:55.557Z,10.95
2023-05-21T13:39:57.991Z,10.27
2023-05-21T13:41:59.648Z,11.35
2023-05-21T13:44:01.356Z,11.35
2023-05-21T13:46:03.504Z,10.75
2023-05-21T13:48:05.548Z,11.63
2023-05-21T13:50:08.476Z,10.77
2023-05-21T13:52:10.170Z,10.38
2023-05-21T13:54:11.804Z,11.45
2023-05-21T13:56:13.511Z,10.85
2023-05-21T13:58:15.186Z,12.32
2023-05-21T14:00:16.863Z,11.65
2023-05-21T14:02:18.730Z,10.65
2023-05-21T14:04:20.981Z,10.57
2023-05-21T14:06:22.603Z,10.52
2023-05-21T14:08:26.011Z,10.00
2023-05-21T14:10:27.630Z,10.07
2023-05-21T14:12:29.243Z,9.75
2023-05-21T14:14:31.421Z,10.60
2023-05-21T14:16:33.041Z,9.65
2023-05-21T14:18:34.655Z,10.00
2023-05-21T14:20:37.661Z,9.57
2023-05-21T14:22:44.337Z,9.77
2023-05-21T14:24:46.161Z,9.25
2023-05-21T14:26:47.769Z,10.10
2023-05-21T14:28:49.413Z,10.90
2023-05-21T14:30:51.074Z,9.55
2023-05-21T14:32:52.714Z,10.10
2023-05-21T14:34:54.300Z,11.40
2023-05-21T14:36:55.932Z,10.10
2023-05-21T14:38:57.497Z,10.80
2023-05-21T14:40:59.053Z,9.98
2023-05-21T14:43:00.700Z,9.93
2023-05-21T14:45:17.457Z,9.90
2023-05-21T14:47:19.574Z,9.77
2023-05-21T14:49:23.720Z,9.77
2023-05-21T14:51:25.549Z,10.10
2023-05-21T14:53:27.201Z,10.13
2023-05-21T14:55:28.940Z,9.82
2023-05-21T14:57:32.402Z,9.88
2023-05-21T14:59:33.971Z,9.75
2023-05-21T15:01:35.680Z,9.82
2023-05-21T15:03:37.402Z,9.73
2023-05-21T15:05:39.330Z,9.45
2023-05-21T15:07:41.032Z,9.38
2023-05-21T15:09:42.592Z,9.82
2023-05-21T15:11:46.011Z,10.05
2023-05-21T15:13:47.827Z,9.70
2023-05-21T15:15:49.937Z,9.80
2023-05-21T15:17:51.646Z,9.45
2023-05-21T15:19:53.297Z,9.30
2023-05-21T15:21:56.022Z,9.07
2023-05-21T15:23:58.291Z,9.43
2023-05-21T15:26:00.650Z,9.10
2023-05-21T15:28:03.123Z,8.95
2023-05-21T15:30:05.369Z,8.85
2023-05-21T15:32:07.187Z,9.20
2023-05-21T15:34:08.953Z,9.05
2023-05-21T15:36:10.786Z,8.43
2023-05-21T15:38:15.371Z,9.05
2023-05-21T15:40:17.209Z,8.68
2023-05-21T15:42:18.807Z,8.90
2023-05-21T15:44:21.289Z,8.00
2023-05-21T15:46:22.922Z,8.57
2023-05-21T15:48:25.585Z,8.55
2023-05-21T15:50:27.217Z,8.60
2023-05-21T15:52:28.852Z,9.50
2023-05-21T15:54:30.854Z,8.55
2023-05-21T15:56:32.493Z,8.63
2023-05-21T15:58:34.064Z,8.27
2023-05-21T16:00:35.726Z,7.68
2023-05-21T16:02:37.667Z,8.77
2023-05-21T16:04:39.340Z,8.63
2023-05-21T16:06:41.075Z,8.68
2023-05-21T16:08:42.771Z,8.18
2023-05-21T16:10:45.986Z,8.07
2023-05-21T16:12:47.646Z,8.23
2023-05-21T16:14:52.255Z,8.35
2023-05-21T16:16:54.049Z,8.85
2023-05-21T16:18:55.704Z,8.43
2023-05-21T16:20:57.514Z,8.35
2023-05-21T16:22:59.145Z,8.25
2023-05-21T16:25:00.778Z,8.32
2023-05-21T16:27:02.415Z,8.43
2023-05-21T16:29:04.038Z,9.15
2023-05-21T16:31:05.920Z,8.63
2023-05-21T16:33:08.108Z,8.50
2023-05-21T16:35:09.852Z,7.90
2023-05-21T16:37:11.474Z,9.05
2023-05-21T16:39:13.061Z,8.75
2023-05-21T16:41:14.749Z,8.52
2023-05-21T16:43:16.529Z,8.25
2023-05-21T16:45:21.864Z,9.40
2023-05-21T16:47:24.073Z,8.85
2023-05-21T16:49:25.745Z,8.68
2023-05-21T16:51:27.310Z,8.55
2023-05-21T16:53:28.928Z,8.55
2023-05-21T16:55:34.452Z,8.30
2023-05-21T16:57:38.569Z,8.70
2023-05-21T16:59:40.168Z,7.97
2023-05-21T17:01:42.623Z,8.15
2023-05-21T17:03:45.117Z,8.57
2023-05-21T17:05:46.785Z,8.20
2023-05-21T17:07:48.732Z,8.07
2023-05-21T17:09:50.338Z,8.65
2023-05-21T17:11:51.982Z,8.63
2023-05-21T17:13:53.635Z,8.45
2023-05-21T17:15:55.346Z,8.57
2023-05-21T17:17:57.095Z,7.97
2023-05-21T17:19:59.068Z,8.48
2023-05-21T17:22:00.784Z,7.80
2023-05-21T17:24:02.500Z,9.02
2023-05-21T17:26:09.513Z,8.82
2023-05-21T17:28:11.298Z,8.73
2023-05-21T17:30:13.168Z,7.88
2023-05-21T17:32:14.810Z,8.77
2023-05-21T17:34:16.749Z,9.13
2023-05-21T17:36:18.401Z,8.85
2023-05-21T17:38:20.052Z,8.30
2023-05-21T17:40:24.270Z,8.20
2023-05-21T17:42:26.035Z,8.88
2023-05-21T17:44:29.900Z,8.90
2023-05-21T17:46:31.540Z,8.75
2023-05-21T17:48:33.195Z,8.68
2023-05-21T17:50:34.874Z,8.52
2023-05-21T17:52:36.491Z,9.07
2023-05-21T17:54:41.165Z,9.00
2023-05-21T17:56:44.208Z,9.65
2023-05-21T17:58:49.379Z,8.40
2023-05-21T18:00:50.952Z,9.05
2023-05-21T18:02:52.594Z,9.23
2023-05-21T18:04:54.359Z,9.32
2023-05-21T18:06:55.932Z,9.25
2023-05-21T18:08:57.993Z,9.65
2023-05-21T18:11:01.561Z,9.82
2023-05-21T18:13:03.243Z,9.32
2023-05-21T18:15:05.287Z,9.55
2023-05-21T18:17:06.957Z,9.98
2023-05-21T18:19:08.644Z,10.07
2023-05-21T18:21:11.027Z,10.00
2023-05-21T18:23:12.644Z,10.80
2023-05-21T18:25:14.255Z,10.10
2023-05-21T18:27:15.973Z,10.02
2023-05-21T18:29:17.568Z,10.50
2023-05-21T18:31:19.247Z,9.77
2023-05-21T18:33:20.849Z,10.85
2023-05-21T18:35:22.482Z,10.98
2023-05-21T18:37:24.114Z,10.73
2023-05-21T18:39:27.743Z,10.35
2023-05-21T18:41:29.437Z,9.75
2023-05-21T18:43:31.014Z,10.23
2023-05-21T18:45:33.180Z,10.65
2023-05-21T18:47:34.970Z,10.30
2023-05-21T18:49:36.747Z,11.27
2023-05-21T18:51:38.471Z,10.77
2023-05-21T18:53:40.617Z,10.48
2023-05-21T18:55:42.166Z,10.57
2023-05-21T18:57:43.986Z,10.98
2023-05-21T18:59:46.049Z,11.23
2023-05-21T19:01:47.766Z,11.07
2023-05-21T19:03:49.412Z,10.48
2023-05-21T19:05:50.991Z,10.93
2023-05-21T19:07:52.698Z,10.38
2023-05-21T19:09:55.569Z,11.20
2023-05-21T19:11:57.413Z,11.10
2023-05-21T19:13:59.268Z,11.35
2023-05-21T19:16:02.118Z,11.27
2023-05-21T19:18:04.165Z,10.65
2023-05-21T19:20:08.422Z,11.43
2023-05-21T19:22:10.022Z,7.10
2023-05-21T19:24:12.033Z,6.47
2023-05-21T19:26:13.920Z,5.15
2023-05-21T19:28:19.034Z,5.28
2023-05-21T19:30:20.679Z,5.10
2023-05-21T19:32:23.664Z,5.60
2023-05-21T19:34:26.866Z,5.43
2023-05-21T19:36:34.988Z,5.38
2023-05-21T19:38:49.966Z,5.68
2023-05-21T19:40:51.537Z,5.90
2023-05-21T19:42:53.319Z,5.80
2023-05-21T19:44:55.011Z,6.00
2023-05-21T19:46:56.615Z,6.03
2023-05-21T19:48:58.366Z,5.63
2023-05-21T19:51:00.010Z,6.30
2023-05-21T19:53:01.723Z,5.80
2023-05-21T19:55:07.926Z,6.78
2023-05-21T19:57:12.273Z,6.45
2023-05-21T19:59:14.254Z,6.13
2023-05-21T20:01:16.706Z,6.35
2023-05-21T20:03:18.626Z,6.22
2023-05-21T20:05:20.537Z,6.13
2023-05-21T20:07:22.644Z,6.40
2023-05-21T20:09:24.257Z,6.05
2023-05-21T20:11:26.227Z,6.28
2023-05-21T20:13:27.874Z,6.53
2023-05-21T20:15:29.470Z,6.18
2023-05-21T20:17:31.154Z,6.68
2023-05-21T20:19:32.958Z,6.45
2023-05-21T20:21:34.857Z,6.40
2023-05-21T20:23:36.422Z,6.70
2023-05-21T20:25:38.678Z,6.43
2023-05-21T20:27:42.421Z,6.70
2023-05-21T20:29:44.670Z,7.07
2023-05-21T20:31:47.062Z,7.07
2023-05-21T20:33:50.700Z,6.97
2023-05-21T20:35:52.411Z,7.18
2023-05-21T20:37:54.710Z,7.10
2023-05-21T20:39:58.002Z,7.20
2023-05-21T20:42:01.035Z,6.85
2023-05-21T20:44:06.493Z,7.65
2023-05-21T20:46:08.225Z,7.50
2023-05-21T20:48:11.986Z,7.85
2023-05-21T20:50:13.562Z,7.95
2023-05-21T20:52:15.243Z,7.53
2023-05-21T20:54:16.965Z,7.53
2023-05-21T20:56:26.623Z,7.85
2023-05-21T20:58:35.792Z,7.50
2023-05-21T21:00:42.102Z,7.13
2023-05-21T21:02:44.154Z,6.72
2023-05-21T21:04:48.668Z,6.55
2023-05-21T21:06:50.349Z,6.55
2023-05-21T21:08:52.201Z,6.70
2023-05-21T21:10:53.846Z,5.47
2023-05-21T21:12:55.424Z,5.38
2023-05-21T21:14:56.984Z,5.40
2023-05-21T21:16:58.545Z,5.40
2023-05-21T21:19:00.733Z,6.07
2023-05-21T21:21:02.386Z,6.57
2023-05-21T21:23:03.985Z,7.00
2023-05-21T21:25:06.210Z,6.47
2023-05-21T21:27:07.879Z,6.20
2023-05-21T21:29:09.442Z,6.40
2023-05-21T21:31:11.171Z,5.93
2023-05-21T21:33:14.368Z,6.03
2023-05-21T21:35:16.546Z,6.40
2023-05-21T21:37:18.105Z,6.10
2023-05-21T21:39:19.754Z,6.32
2023-05-21T21:41:22.463Z,6.70
2023-05-21T21:43:24.046Z,6.88
2023-05-21T21:45:25.640Z,7.05
2023-05-21T21:47:27.218Z,6.78
2023-05-21T21:49:28.818Z,7.32
2023-05-21T21:51:30.420Z,7.25
2023-05-21T21:53:31.978Z,6.93
2023-05-21T21:55:33.601Z,6.93
2023-05-21T21:57:35.728Z,6.78
2023-05-21T21:59:39.225Z,7.47
2023-05-21T22:01:41.021Z,6.88
2023-05-21T22:03:42.671Z,6.85
2023-05-21T22:05:44.753Z,7.28
2023-05-21T22:07:46.607Z,7.50
2023-05-21T22:09:48.501Z,7.82
2023-05-21T22:11:50.099Z,7.25
2023-05-21T22:13:53.776Z,7.15
2023-05-21T22:15:55.342Z,7.88
2023-05-21T22:17:57.043Z,8.13
2023-05-21T22:19:58.706Z,7.85
2023-05-21T22:22:02.066Z,7.80
2023-05-21T22:24:04.090Z,6.93
2023-05-21T22:26:06.662Z,7.55
2023-05-21T22:28:08.431Z,7.65
2023-05-21T22:30:10.400Z,7.38
2023-05-21T22:32:12.690Z,7.00
2023-05-21T22:34:14.305Z,7.28
2023-05-21T22:36:16.087Z,8.10
2023-05-21T22:38:18.033Z,8.43
2023-05-21T22:40:19.651Z,8.77
2023-05-21T22:42:21.336Z,8.70
2023-05-21T22:44:23.093Z,8.43
2023-05-21T22:46:24.732Z,8.32
2023-05-21T22:48:26.367Z,8.10
2023-05-21T22:50:29.157Z,7.93
2023-05-21T22:52:31.920Z,8.27
2023-05-21T22:54:33.741Z,8.20
2023-05-21T22:56:35.550Z,8.73
2023-05-21T22:58:37.180Z,8.98
2023-05-21T23:00:38.918Z,9.35
2023-05-21T23:02:40.819Z,8.85
2023-05-21T23:04:45.890Z,9.00
2023-05-21T23:06:47.505Z,8.13
2023-05-21T23:08:49.085Z,9.60
2023-05-21T23:10:50.674Z,9.32
2023-05-21T23:12:52.459Z,9.13
2023-05-21T23:14:54.213Z,9.23
2023-05-21T23:16:55.915Z,9.32
2023-05-21T23:18:57.833Z,9.88
2023-05-21T23:20:59.514Z,8.77
2023-05-21T23:23:04.125Z,9.48
2023-05-21T23:25:06.333Z,9.73
2023-05-21T23:27:07.982Z,9.25
2023-05-21T23:29:09.524Z,9.55
2023-05-21T23:31:11.447Z,9.30
2023-05-21T23:33:13.856Z,9.45
2023-05-21T23:35:16.223Z,9.30
2023-05-21T23:37:17.949Z,9.40
2023-05-21T23:39:19.588Z,9.80
2023-05-21T23:41:21.263Z,9.95
2023-05-21T23:43:22.964Z,9.75
2023-05-21T23:45:24.554Z,10.15
2023-05-21T23:47:26.201Z,9.82
2023-05-21T23:49:27.794Z,10.00
2023-05-21T23:51:29.560Z,10.25
2023-05-21T23:53:31.220Z,9.93
2023-05-21T23:55:32.761Z,10.20
2023-05-21T23:57:34.320Z,10.27
2023-05-21T23:59:36.050Z,9.52
